createdAt,value
2022-10-16T00:00:52.633Z,15.18
2022-10-16T00:02:55.488Z,15.27
2022-10-16T00:04:58.151Z,15.20
2022-10-16T00:07:00.741Z,15.20
2022-10-16T00:09:03.665Z,15.31
2022-10-16T00:11:09.485Z,15.17
2022-10-16T00:13:13.399Z,15.19
2022-10-16T00:15:16.191Z,15.37
2022-10-16T00:17:19.063Z,15.20
2022-10-16T00:19:21.649Z,15.16
2022-10-16T00:21:26.371Z,15.14
2022-10-16T00:23:28.955Z,15.20
2022-10-16T00:25:33.510Z,15.21
2022-10-16T00:27:36.400Z,15.22
2022-10-16T00:29:40.360Z,14.87
2022-10-16T00:31:43.136Z,14.91
2022-10-16T00:33:45.804Z,14.85
2022-10-16T00:35:48.623Z,14.98
2022-10-16T00:37:51.395Z,14.93
2022-10-16T00:39:53.976Z,14.80
2022-10-16T00:41:56.649Z,14.94
2022-10-16T00:44:01.429Z,14.98
2022-10-16T00:46:10.171Z,14.85
2022-10-16T00:48:15.836Z,14.72
2022-10-16T00:50:24.055Z,14.61
2022-10-16T00:52:27.447Z,14.61
2022-10-16T00:54:32.877Z,14.61
2022-10-16T00:56:35.657Z,14.60
2022-10-16T00:58:38.575Z,14.56
2022-10-16T01:00:41.288Z,14.58
2022-10-16T01:02:45.263Z,14.71
2022-10-16T01:04:50.874Z,14.52
2022-10-16T01:07:00.150Z,14.51
2022-10-16T01:09:24.377Z,14.48
2022-10-16T01:11:34.392Z,14.39
2022-10-16T01:13:42.999Z,14.37
2022-10-16T01:15:52.089Z,14.34
2022-10-16T01:18:02.996Z,14.35
2022-10-16T01:20:12.929Z,14.44
2022-10-16T01:22:16.295Z,14.48
2022-10-16T01:24:32.627Z,14.47
2022-10-16T01:26:46.416Z,14.33
2022-10-16T01:28:54.968Z,14.28
2022-10-16T01:31:01.711Z,14.30
2022-10-16T01:33:11.985Z,14.30
2022-10-16T01:35:24.076Z,14.25
2022-10-16T01:37:35.167Z,14.25
2022-10-16T01:39:41.790Z,14.21
2022-10-16T01:41:48.421Z,14.22
2022-10-16T01:43:59.473Z,14.21
2022-10-16T01:46:03.117Z,14.44
2022-10-16T01:48:10.481Z,14.43
2022-10-16T01:50:16.872Z,14.59
2022-10-16T01:52:24.614Z,14.47
2022-10-16T01:54:30.634Z,14.57
2022-10-16T01:56:34.498Z,14.47
2022-10-16T01:58:41.998Z,14.78
2022-10-16T02:00:48.845Z,14.81
2022-10-16T02:02:56.144Z,14.70
2022-10-16T02:05:03.670Z,14.56
2022-10-16T02:07:07.465Z,14.62
2022-10-16T02:09:10.864Z,14.53
2022-10-16T02:11:13.666Z,14.47
2022-10-16T02:13:22.110Z,14.54
2022-10-16T02:15:24.739Z,14.65
2022-10-16T02:17:29.156Z,14.69
2022-10-16T02:19:31.803Z,14.55
2022-10-16T02:21:43.024Z,14.61
2022-10-16T02:23:53.368Z,14.68
2022-10-16T02:25:58.344Z,14.51
2022-10-16T02:28:05.854Z,14.53
2022-10-16T02:30:15.028Z,14.56
2022-10-16T02:32:20.976Z,14.59
2022-10-16T02:34:27.756Z,14.60
2022-10-16T02:36:31.421Z,14.52
2022-10-16T02:38:35.120Z,14.52
2022-10-16T02:40:38.207Z,14.69
2022-10-16T02:42:42.412Z,14.78
2022-10-16T02:44:44.967Z,14.56
2022-10-16T02:46:47.543Z,14.47
2022-10-16T02:48:50.190Z,14.51
2022-10-16T02:50:54.133Z,14.56
2022-10-16T02:52:56.844Z,14.53
2022-10-16T02:54:59.436Z,14.56
2022-10-16T02:57:02.154Z,14.55
2022-10-16T02:59:04.722Z,14.40
2022-10-16T03:01:07.371Z,14.36
2022-10-16T03:03:09.976Z,14.35
2022-10-16T03:05:12.945Z,14.28
2022-10-16T03:07:17.181Z,14.32
2022-10-16T03:09:19.852Z,14.31
2022-10-16T03:11:22.554Z,14.33
2022-10-16T03:13:25.148Z,14.28
2022-10-16T03:15:29.137Z,14.34
2022-10-16T03:17:31.841Z,14.36
2022-10-16T03:19:34.401Z,14.32
2022-10-16T03:21:37.119Z,14.29
2022-10-16T03:23:41.469Z,14.28
2022-10-16T03:25:44.361Z,14.25
2022-10-16T03:27:47.022Z,14.25
2022-10-16T03:29:49.634Z,14.26
2022-10-16T03:31:52.244Z,14.24
2022-10-16T03:33:54.828Z,14.35
2022-10-16T03:35:57.423Z,14.30
2022-10-16T03:37:59.972Z,14.32
2022-10-16T03:40:04.753Z,14.22
2022-10-16T03:42:07.639Z,14.23
2022-10-16T03:44:10.232Z,14.26
2022-10-16T03:46:12.918Z,14.20
2022-10-16T03:48:15.554Z,14.19
2022-10-16T03:50:18.402Z,14.25
2022-10-16T03:52:21.109Z,14.26
2022-10-16T03:54:23.947Z,14.20
2022-10-16T03:56:28.175Z,14.17
2022-10-16T03:58:30.811Z,14.23
2022-10-16T04:00:33.431Z,14.29
2022-10-16T04:02:36.072Z,14.28
2022-10-16T04:04:38.672Z,14.29
2022-10-16T04:06:41.265Z,14.29
2022-10-16T04:08:45.066Z,14.30
2022-10-16T04:10:47.793Z,14.27
2022-10-16T04:12:51.738Z,14.27
2022-10-16T04:14:54.347Z,14.23
2022-10-16T04:16:56.937Z,14.22
2022-10-16T04:18:59.520Z,14.23
2022-10-16T04:21:04.806Z,14.27
2022-10-16T04:23:07.443Z,14.27
2022-10-16T04:25:12.147Z,14.35
2022-10-16T04:27:14.737Z,14.30
2022-10-16T04:29:18.682Z,14.36
2022-10-16T04:31:21.537Z,14.34
2022-10-16T04:33:24.253Z,14.30
2022-10-16T04:35:26.829Z,14.26
2022-10-16T04:37:29.628Z,14.26
2022-10-16T04:39:32.298Z,14.32
2022-10-16T04:41:34.928Z,14.29
2022-10-16T04:43:37.580Z,14.33
2022-10-16T04:45:41.530Z,14.31
2022-10-16T04:47:44.126Z,14.38
2022-10-16T04:49:46.697Z,14.32
2022-10-16T04:51:49.289Z,14.30
2022-10-16T04:53:51.909Z,14.29
2022-10-16T04:55:54.573Z,14.26
2022-10-16T04:57:57.177Z,14.27
2022-10-16T04:59:59.750Z,14.23
2022-10-16T05:02:03.753Z,14.24
2022-10-16T05:04:06.375Z,14.26
2022-10-16T05:06:09.457Z,14.20
2022-10-16T05:08:12.191Z,14.23
2022-10-16T05:10:14.889Z,14.21
2022-10-16T05:12:17.523Z,14.18
2022-10-16T05:14:20.093Z,14.21
2022-10-16T05:16:22.696Z,14.14
2022-10-16T05:18:26.643Z,14.16
2022-10-16T05:20:29.222Z,14.20
2022-10-16T05:22:31.838Z,14.23
2022-10-16T05:24:34.526Z,14.23
2022-10-16T05:26:37.105Z,14.26
2022-10-16T05:28:39.724Z,14.23
2022-10-16T05:30:42.360Z,14.15
2022-10-16T05:32:48.851Z,14.12
2022-10-16T05:34:53.077Z,14.08
2022-10-16T05:36:55.678Z,14.10
2022-10-16T05:38:58.287Z,14.01
2022-10-16T05:41:00.893Z,14.13
2022-10-16T05:43:03.500Z,14.22
2022-10-16T05:45:07.437Z,14.09
2022-10-16T05:47:11.609Z,14.02
2022-10-16T05:49:14.423Z,13.95
2022-10-16T05:51:18.304Z,14.07
2022-10-16T05:53:26.354Z,14.20
2022-10-16T05:55:28.931Z,14.07
2022-10-16T05:57:31.927Z,14.04
2022-10-16T05:59:34.543Z,14.13
2022-10-16T06:01:37.220Z,14.13
2022-10-16T06:03:40.134Z,14.06
2022-10-16T06:05:43.825Z,14.15
2022-10-16T06:07:47.794Z,14.08
2022-10-16T06:09:51.277Z,14.11
2022-10-16T06:11:53.906Z,14.20
2022-10-16T06:13:58.403Z,14.18
2022-10-16T06:16:02.473Z,14.22
2022-10-16T06:18:05.050Z,14.21
2022-10-16T06:20:08.322Z,14.19
2022-10-16T06:22:11.088Z,14.26
2022-10-16T06:24:15.079Z,14.31
2022-10-16T06:26:19.630Z,14.47
2022-10-16T06:28:22.325Z,14.34
2022-10-16T06:30:24.974Z,14.32
2022-10-16T06:32:27.584Z,14.50
2022-10-16T06:34:30.178Z,14.41
2022-10-16T06:36:33.008Z,14.43
2022-10-16T06:38:36.270Z,14.50
2022-10-16T06:40:40.260Z,14.62
2022-10-16T06:42:43.351Z,14.73
2022-10-16T06:44:46.027Z,14.89
2022-10-16T06:46:48.626Z,14.96
2022-10-16T06:48:51.554Z,14.99
2022-10-16T06:50:59.129Z,14.98
2022-10-16T06:53:01.758Z,15.05
2022-10-16T06:55:04.909Z,15.14
2022-10-16T06:57:08.903Z,15.21
2022-10-16T06:59:11.515Z,15.16
2022-10-16T07:01:15.636Z,15.14
2022-10-16T07:03:18.266Z,15.18
2022-10-16T07:05:20.852Z,15.20
2022-10-16T07:07:25.641Z,15.25
2022-10-16T07:09:28.248Z,15.34
2022-10-16T07:11:30.858Z,15.39
2022-10-16T07:13:36.693Z,15.46
2022-10-16T07:15:39.300Z,15.46
2022-10-16T07:17:41.913Z,15.54
2022-10-16T07:19:44.560Z,15.62
2022-10-16T07:21:47.348Z,15.68
2022-10-16T07:23:52.379Z,15.55
2022-10-16T07:25:57.717Z,15.52
2022-10-16T07:28:00.315Z,15.52
2022-10-16T07:30:08.218Z,15.54
2022-10-16T07:32:11.976Z,15.60
2022-10-16T07:34:16.121Z,15.48
2022-10-16T07:36:19.969Z,15.51
2022-10-16T07:38:23.928Z,15.44
2022-10-16T07:40:28.016Z,15.40
2022-10-16T07:42:30.638Z,15.44
2022-10-16T07:44:33.213Z,15.45
2022-10-16T07:46:37.461Z,15.40
2022-10-16T07:48:40.050Z,15.45
2022-10-16T07:50:43.119Z,15.54
2022-10-16T07:52:45.712Z,15.66
2022-10-16T07:54:48.352Z,15.64
2022-10-16T07:56:51.111Z,15.71
2022-10-16T07:58:54.016Z,15.70
2022-10-16T08:00:56.991Z,15.81
2022-10-16T08:03:01.307Z,15.87
2022-10-16T08:05:04.061Z,15.72
2022-10-16T08:07:08.358Z,15.77
2022-10-16T08:09:11.427Z,15.68
2022-10-16T08:11:15.110Z,15.81
2022-10-16T08:13:17.893Z,15.93
2022-10-16T08:15:21.049Z,16.01
2022-10-16T08:17:24.068Z,16.15
2022-10-16T08:19:28.306Z,16.21
2022-10-16T08:21:30.887Z,16.29
2022-10-16T08:23:34.384Z,16.43
2022-10-16T08:25:38.268Z,16.56
2022-10-16T08:27:40.891Z,16.60
2022-10-16T08:29:43.520Z,16.68
2022-10-16T08:31:46.184Z,16.82
2022-10-16T08:33:48.888Z,16.83
2022-10-16T08:35:56.443Z,16.86
2022-10-16T08:37:59.154Z,17.02
2022-10-16T08:40:01.829Z,17.00
2022-10-16T08:42:18.532Z,16.89
2022-10-16T08:44:41.607Z,16.86
2022-10-16T08:46:52.229Z,17.01
2022-10-16T08:48:57.929Z,16.84
2022-10-16T08:51:03.860Z,16.85
2022-10-16T08:53:07.563Z,16.94
2022-10-16T08:55:25.669Z,16.89
2022-10-16T08:57:28.598Z,16.85
2022-10-16T08:59:31.197Z,16.83
2022-10-16T09:01:41.078Z,16.83
2022-10-16T09:04:07.844Z,16.93
2022-10-16T09:06:25.255Z,16.92
2022-10-16T09:08:36.618Z,17.23
2022-10-16T09:10:52.015Z,17.27
2022-10-16T09:13:00.417Z,17.47
2022-10-16T09:15:16.144Z,17.61
2022-10-16T09:17:32.698Z,17.84
2022-10-16T09:19:40.246Z,17.94
2022-10-16T09:21:46.560Z,18.10
2022-10-16T09:23:49.554Z,18.11
2022-10-16T09:25:52.223Z,18.53
2022-10-16T09:27:55.760Z,18.36
2022-10-16T09:29:59.862Z,17.99
2022-10-16T09:32:13.809Z,17.92
2022-10-16T09:34:28.960Z,18.13
2022-10-16T09:36:38.141Z,18.27
2022-10-16T09:38:42.271Z,18.26
2022-10-16T09:40:44.985Z,18.90
2022-10-16T09:42:47.689Z,19.18
2022-10-16T09:44:51.795Z,19.45
2022-10-16T09:47:03.930Z,19.37
2022-10-16T09:49:20.752Z,19.03
2022-10-16T09:51:27.307Z,19.12
2022-10-16T09:53:43.178Z,20.02
2022-10-16T09:55:53.302Z,20.05
2022-10-16T09:57:56.720Z,20.63
2022-10-16T10:00:00.671Z,20.60
2022-10-16T10:02:06.162Z,21.15
2022-10-16T10:04:09.997Z,20.94
2022-10-16T10:06:24.286Z,20.63
2022-10-16T10:08:26.995Z,20.42
2022-10-16T10:10:32.824Z,20.24
2022-10-16T10:12:37.486Z,20.35
2022-10-16T10:14:44.111Z,20.27
2022-10-16T10:16:47.098Z,20.21
2022-10-16T10:19:00.180Z,20.23
2022-10-16T10:21:06.983Z,20.36
2022-10-16T10:23:23.744Z,20.67
2022-10-16T10:25:51.464Z,20.87
2022-10-16T10:28:20.452Z,21.14
2022-10-16T10:30:26.148Z,21.02
2022-10-16T10:32:38.854Z,20.91
2022-10-16T10:34:56.753Z,20.77
2022-10-16T10:37:06.429Z,20.63
2022-10-16T10:39:15.578Z,20.69
2022-10-16T10:41:58.787Z,21.19
2022-10-16T10:44:13.869Z,21.30
2022-10-16T10:46:24.607Z,21.05
2022-10-16T10:48:49.402Z,21.04
2022-10-16T10:50:58.697Z,21.01
2022-10-16T10:53:11.320Z,21.00
2022-10-16T10:55:22.507Z,21.30
2022-10-16T10:57:31.801Z,21.24
2022-10-16T11:00:10.370Z,21.41
2022-10-16T11:02:19.988Z,21.44
2022-10-16T11:04:49.206Z,21.69
2022-10-16T11:06:57.542Z,22.01
2022-10-16T11:09:06.134Z,21.81
2022-10-16T11:11:14.042Z,21.61
2022-10-16T11:13:29.923Z,21.65
2022-10-16T11:15:37.575Z,21.61
2022-10-16T11:17:43.825Z,21.90
2022-10-16T11:19:50.183Z,21.94
2022-10-16T11:21:57.840Z,21.71
2022-10-16T11:24:08.183Z,21.94
2022-10-16T11:26:18.717Z,21.85
2022-10-16T11:28:28.033Z,21.84
2022-10-16T11:30:35.941Z,21.96
2022-10-16T11:32:54.462Z,21.84
2022-10-16T11:35:02.592Z,21.81
2022-10-16T11:37:13.547Z,21.87
2022-10-16T11:39:22.425Z,21.89
2022-10-16T11:41:31.535Z,22.17
2022-10-16T11:43:39.416Z,22.19
2022-10-16T11:45:45.697Z,21.85
2022-10-16T11:47:59.686Z,21.65
2022-10-16T11:50:06.756Z,21.75
2022-10-16T11:52:18.048Z,22.12
2022-10-16T11:54:30.385Z,22.35
2022-10-16T11:56:38.893Z,22.44
2022-10-16T11:58:48.643Z,22.48
2022-10-16T12:01:00.766Z,22.34
2022-10-16T12:03:16.518Z,22.45
2022-10-16T12:05:27.553Z,22.66
2022-10-16T12:07:37.556Z,23.04
2022-10-16T12:09:43.771Z,23.47
2022-10-16T12:11:46.317Z,23.11
2022-10-16T12:13:50.060Z,23.61
2022-10-16T12:15:59.181Z,23.48
2022-10-16T12:18:03.840Z,23.71
2022-10-16T12:20:27.663Z,23.38
2022-10-16T12:22:32.214Z,23.84
2022-10-16T12:24:38.009Z,24.68
2022-10-16T12:26:42.744Z,24.02
2022-10-16T12:28:49.407Z,24.14
2022-10-16T12:30:56.641Z,23.96
2022-10-16T12:33:02.328Z,23.98
2022-10-16T12:35:19.132Z,24.54
2022-10-16T12:37:25.842Z,24.90
2022-10-16T12:39:30.404Z,25.05
2022-10-16T12:41:35.586Z,25.16
2022-10-16T12:43:43.219Z,24.79
2022-10-16T12:45:47.229Z,24.48
2022-10-16T12:47:52.282Z,24.37
2022-10-16T12:49:56.730Z,24.19
2022-10-16T12:52:00.922Z,24.73
2022-10-16T12:54:05.754Z,24.36
2022-10-16T12:56:19.221Z,24.08
2022-10-16T12:58:35.947Z,23.63
2022-10-16T13:00:46.778Z,23.31
2022-10-16T13:03:10.386Z,23.13
2022-10-16T13:05:28.496Z,23.28
2022-10-16T13:07:46.701Z,23.23
2022-10-16T13:10:02.708Z,22.87
2022-10-16T13:12:18.332Z,22.98
2022-10-16T13:14:37.675Z,23.21
2022-10-16T13:16:52.043Z,23.04
2022-10-16T13:19:06.050Z,23.00
2022-10-16T13:21:20.562Z,22.93
2022-10-16T13:23:33.106Z,22.47
2022-10-16T13:25:48.631Z,22.87
2022-10-16T13:27:57.368Z,22.72
2022-10-16T13:30:12.559Z,22.75
2022-10-16T13:32:17.584Z,22.29
2022-10-16T13:34:24.320Z,22.38
2022-10-16T13:36:28.639Z,22.03
2022-10-16T13:38:35.244Z,21.94
2022-10-16T13:40:37.892Z,21.97
2022-10-16T13:42:40.504Z,22.47
2022-10-16T13:44:46.077Z,22.30
2022-10-16T13:46:48.925Z,22.27
2022-10-16T13:48:58.968Z,22.69
2022-10-16T13:51:07.935Z,22.59
2022-10-16T13:53:15.855Z,22.28
2022-10-16T13:55:24.045Z,22.20
2022-10-16T13:57:27.869Z,22.20
2022-10-16T13:59:36.474Z,22.51
2022-10-16T14:01:44.839Z,22.51
2022-10-16T14:03:48.914Z,22.10
2022-10-16T14:05:54.095Z,22.14
2022-10-16T14:07:58.690Z,22.42
2022-10-16T14:10:05.246Z,22.03
2022-10-16T14:12:13.189Z,21.87
2022-10-16T14:14:16.543Z,21.89
2022-10-16T14:16:22.184Z,21.86
2022-10-16T14:18:32.027Z,21.56
2022-10-16T14:20:37.678Z,21.78
2022-10-16T14:22:42.583Z,21.69
2022-10-16T14:24:45.304Z,21.94
2022-10-16T14:26:51.035Z,21.83
2022-10-16T14:29:12.903Z,22.00
2022-10-16T14:31:28.438Z,21.94
2022-10-16T14:33:35.287Z,22.00
2022-10-16T14:35:39.816Z,22.40
2022-10-16T14:37:42.507Z,21.91
2022-10-16T14:39:51.356Z,22.03
2022-10-16T14:41:57.313Z,21.97
2022-10-16T14:44:05.732Z,22.13
2022-10-16T14:46:14.974Z,21.61
2022-10-16T14:48:20.778Z,21.75
2022-10-16T14:50:24.034Z,21.68
2022-10-16T14:52:26.998Z,21.94
2022-10-16T14:54:29.618Z,21.82
2022-10-16T14:56:36.233Z,21.52
2022-10-16T14:58:38.987Z,21.65
2022-10-16T15:00:43.027Z,21.77
2022-10-16T15:02:45.942Z,21.51
2022-10-16T15:04:49.109Z,21.60
2022-10-16T15:06:51.808Z,21.63
2022-10-16T15:08:54.429Z,21.56
2022-10-16T15:10:57.309Z,21.51
2022-10-16T15:12:59.971Z,21.63
2022-10-16T15:15:02.628Z,21.58
2022-10-16T15:17:06.897Z,21.40
2022-10-16T15:19:09.503Z,21.63
2022-10-16T15:21:23.310Z,21.57
2022-10-16T15:25:37.497Z,21.33
2022-10-16T15:27:41.192Z,21.54
2022-10-16T15:29:43.815Z,21.42
2022-10-16T15:31:48.398Z,21.52
2022-10-16T15:33:54.641Z,21.24
2022-10-16T15:35:57.893Z,21.39
2022-10-16T15:38:00.544Z,21.33
2022-10-16T15:40:03.189Z,21.30
2022-10-16T15:42:06.888Z,20.95
2022-10-16T15:44:09.974Z,20.88
2022-10-16T15:46:15.310Z,20.83
2022-10-16T15:48:17.922Z,20.47
2022-10-16T15:50:22.131Z,20.42
2022-10-16T15:52:24.978Z,20.73
2022-10-16T15:54:27.852Z,20.72
2022-10-16T15:56:31.488Z,20.41
2022-10-16T15:58:34.431Z,20.64
2022-10-16T16:00:37.088Z,20.69
2022-10-16T16:02:40.018Z,20.52
2022-10-16T16:04:44.237Z,20.63
2022-10-16T16:06:48.673Z,20.23
2022-10-16T16:08:51.345Z,20.16
2022-10-16T16:11:00.741Z,20.20
2022-10-16T16:13:03.404Z,20.01
2022-10-16T16:15:06.929Z,20.12
2022-10-16T16:17:09.619Z,20.05
2022-10-16T16:19:12.318Z,20.09
2022-10-16T16:21:15.327Z,19.98
2022-10-16T16:23:20.085Z,19.96
2022-10-16T16:25:22.686Z,19.78
2022-10-16T16:27:26.277Z,19.85
2022-10-16T16:29:29.620Z,19.75
2022-10-16T16:31:34.431Z,19.80
2022-10-16T16:33:37.098Z,19.73
2022-10-16T16:35:39.743Z,19.61
2022-10-16T16:37:42.388Z,19.69
2022-10-16T16:39:46.434Z,19.60
2022-10-16T16:41:49.301Z,19.30
2022-10-16T16:43:52.524Z,19.47
2022-10-16T16:45:55.950Z,19.55
2022-10-16T16:47:58.594Z,19.51
2022-10-16T16:50:05.651Z,19.52
2022-10-16T16:52:08.315Z,19.58
2022-10-16T16:54:13.668Z,19.59
2022-10-16T16:56:18.892Z,19.37
2022-10-16T16:58:21.589Z,19.24
2022-10-16T17:00:24.277Z,19.27
2022-10-16T17:02:26.964Z,19.26
2022-10-16T17:04:29.736Z,19.09
2022-10-16T17:06:32.409Z,19.14
2022-10-16T17:08:35.750Z,19.06
2022-10-16T17:10:44.735Z,19.10
2022-10-16T17:12:48.807Z,19.12
2022-10-16T17:14:52.760Z,18.96
2022-10-16T17:16:55.491Z,18.80
2022-10-16T17:19:02.120Z,18.71
2022-10-16T17:21:07.182Z,18.72
2022-10-16T17:23:09.782Z,18.69
2022-10-16T17:25:12.435Z,18.85
2022-10-16T17:27:15.080Z,19.01
2022-10-16T17:29:19.621Z,18.97
2022-10-16T17:31:23.943Z,18.98
2022-10-16T17:33:26.550Z,18.90
2022-10-16T17:35:29.636Z,18.88
2022-10-16T17:37:32.238Z,18.72
2022-10-16T17:39:34.935Z,18.79
2022-10-16T17:41:37.867Z,18.85
2022-10-16T17:43:40.713Z,18.79
2022-10-16T17:45:44.687Z,18.71
2022-10-16T17:47:47.340Z,18.72
2022-10-16T17:49:50.370Z,18.69
2022-10-16T17:51:54.858Z,18.56
2022-10-16T17:53:59.230Z,18.55
2022-10-16T17:56:04.431Z,18.52
2022-10-16T17:58:07.247Z,18.44
2022-10-16T18:00:11.129Z,18.49
2022-10-16T18:02:15.820Z,18.56
2022-10-16T18:04:19.165Z,18.40
2022-10-16T18:06:23.373Z,18.37
2022-10-16T18:08:28.678Z,18.26
2022-10-16T18:10:31.590Z,18.33
2022-10-16T18:12:34.500Z,18.20
2022-10-16T18:14:37.202Z,18.18
2022-10-16T18:16:39.934Z,18.16
2022-10-16T18:18:45.628Z,18.27
2022-10-16T18:20:57.652Z,18.02
2022-10-16T18:23:00.246Z,17.98
2022-10-16T18:25:04.252Z,18.01
2022-10-16T18:27:07.316Z,18.11
2022-10-16T18:29:11.644Z,17.96
2022-10-16T18:31:16.158Z,17.94
2022-10-16T18:33:18.747Z,17.98
2022-10-16T18:35:22.723Z,17.83
2022-10-16T18:37:25.719Z,17.84
2022-10-16T18:39:28.588Z,17.87
2022-10-16T18:41:32.560Z,17.78
2022-10-16T18:43:36.183Z,17.78
2022-10-16T18:45:39.110Z,17.70
2022-10-16T18:47:41.737Z,17.61
2022-10-16T18:49:46.660Z,17.65
2022-10-16T18:51:56.285Z,17.56
2022-10-16T18:54:01.229Z,17.62
2022-10-16T18:56:03.907Z,17.59
2022-10-16T18:58:06.723Z,17.75
2022-10-16T19:00:10.774Z,17.62
2022-10-16T19:02:13.776Z,17.54
2022-10-16T19:04:18.808Z,17.53
2022-10-16T19:06:21.600Z,17.59
2022-10-16T19:08:25.520Z,17.53
2022-10-16T19:10:28.204Z,17.44
2022-10-16T19:12:30.919Z,17.39
2022-10-16T19:14:33.518Z,17.36
2022-10-16T19:16:37.231Z,17.50
2022-10-16T19:18:40.160Z,17.33
2022-10-16T19:20:42.795Z,17.25
2022-10-16T19:22:56.741Z,17.26
2022-10-16T19:25:00.710Z,17.28
2022-10-16T19:27:03.348Z,17.23
2022-10-16T19:29:06.994Z,17.21
2022-10-16T19:31:13.096Z,17.32
2022-10-16T19:33:15.743Z,17.33
2022-10-16T19:35:18.399Z,17.26
2022-10-16T19:37:25.797Z,17.24
2022-10-16T19:39:28.488Z,17.29
2022-10-16T19:41:33.529Z,17.23
2022-10-16T19:43:36.250Z,17.24
2022-10-16T19:45:38.891Z,17.21
2022-10-16T19:47:41.564Z,17.12
2022-10-16T19:49:44.292Z,17.09
2022-10-16T19:51:49.471Z,17.06
2022-10-16T19:53:56.403Z,17.06
2022-10-16T19:55:59.138Z,17.05
2022-10-16T19:58:03.376Z,17.03
2022-10-16T20:00:07.690Z,17.00
2022-10-16T20:02:11.331Z,17.17
2022-10-16T20:04:14.352Z,17.10
2022-10-16T20:06:18.461Z,17.12
2022-10-16T20:08:21.485Z,17.13
2022-10-16T20:10:25.142Z,17.14
2022-10-16T20:12:27.848Z,17.10
2022-10-16T20:14:31.797Z,17.13
2022-10-16T20:16:34.696Z,17.06
2022-10-16T20:18:37.499Z,16.97
2022-10-16T20:20:41.194Z,16.96
2022-10-16T20:22:43.794Z,16.82
2022-10-16T20:24:46.436Z,16.84
2022-10-16T20:26:49.039Z,16.74
2022-10-16T20:28:52.035Z,16.65
2022-10-16T20:30:56.216Z,16.58
2022-10-16T20:32:58.895Z,16.65
2022-10-16T20:35:04.347Z,16.52
2022-10-16T20:37:09.723Z,16.41
2022-10-16T20:39:13.691Z,16.48
2022-10-16T20:41:18.158Z,16.48
2022-10-16T20:43:20.992Z,16.47
2022-10-16T20:45:23.628Z,16.53
2022-10-16T20:47:27.943Z,16.40
2022-10-16T20:49:40.166Z,16.46
2022-10-16T20:51:43.956Z,16.47
2022-10-16T20:53:47.663Z,16.50
2022-10-16T20:55:50.373Z,16.58
2022-10-16T20:57:53.148Z,16.68
2022-10-16T20:59:55.840Z,16.87
2022-10-16T21:01:58.570Z,16.89
2022-10-16T21:04:04.846Z,17.15
2022-10-16T21:06:09.764Z,17.23
2022-10-16T21:08:12.393Z,17.35
2022-10-16T21:10:15.516Z,17.34
2022-10-16T21:12:18.220Z,17.39
2022-10-16T21:14:22.030Z,17.36
2022-10-16T21:16:25.022Z,17.27
2022-10-16T21:18:28.509Z,17.27
2022-10-16T21:20:32.501Z,17.27
2022-10-16T21:22:35.148Z,17.24
2022-10-16T21:24:39.808Z,17.20
2022-10-16T21:26:42.431Z,17.20
2022-10-16T21:28:45.735Z,17.00
2022-10-16T21:30:48.389Z,17.01
2022-10-16T21:32:50.996Z,16.99
2022-10-16T21:34:53.614Z,16.85
2022-10-16T21:36:57.580Z,16.80
2022-10-16T21:39:03.158Z,16.80
2022-10-16T21:41:13.129Z,16.61
2022-10-16T21:43:15.752Z,16.52
2022-10-16T21:45:18.414Z,16.29
2022-10-16T21:47:21.106Z,16.30
2022-10-16T21:49:23.781Z,16.24
2022-10-16T21:51:27.652Z,16.11
2022-10-16T21:53:31.618Z,16.06
2022-10-16T21:55:37.004Z,16.07
2022-10-16T21:57:39.591Z,16.00
2022-10-16T21:59:42.234Z,15.93
2022-10-16T22:01:45.218Z,16.24
2022-10-16T22:03:48.620Z,16.40
2022-10-16T22:05:51.910Z,16.42
2022-10-16T22:07:54.524Z,16.51
2022-10-16T22:09:58.513Z,16.47
2022-10-16T22:12:01.112Z,16.28
2022-10-16T22:14:04.946Z,16.28
2022-10-16T22:16:08.639Z,16.29
2022-10-16T22:18:11.354Z,16.24
2022-10-16T22:20:14.289Z,16.20
2022-10-16T22:22:16.883Z,16.25
2022-10-16T22:24:20.050Z,16.26
2022-10-16T22:26:24.168Z,16.28
2022-10-16T22:28:26.954Z,16.10
2022-10-16T22:30:29.616Z,16.07
2022-10-16T22:32:33.356Z,16.13
2022-10-16T22:34:36.063Z,16.02
2022-10-16T22:36:38.821Z,16.00
2022-10-16T22:38:41.875Z,15.94
2022-10-16T22:40:44.597Z,15.92
2022-10-16T22:44:56.190Z,15.93
2022-10-16T22:46:59.075Z,15.89
2022-10-16T22:49:01.722Z,15.91
2022-10-16T22:51:05.280Z,15.90
2022-10-16T22:53:07.986Z,15.96
2022-10-16T22:55:10.796Z,15.80
2022-10-16T22:57:13.426Z,15.80
2022-10-16T22:59:17.480Z,15.77
2022-10-16T23:01:22.528Z,15.63
2022-10-16T23:03:25.327Z,15.62
2022-10-16T23:05:28.097Z,15.59
2022-10-16T23:07:32.258Z,15.46
2022-10-16T23:09:34.984Z,15.55
2022-10-16T23:11:37.607Z,15.73
2022-10-16T23:13:44.994Z,15.57
2022-10-16T23:15:48.932Z,15.73
2022-10-16T23:17:51.582Z,15.55
2022-10-16T23:19:54.286Z,15.42
2022-10-16T23:21:56.920Z,15.31
2022-10-16T23:23:59.779Z,15.22
2022-10-16T23:26:02.680Z,15.07
2022-10-16T23:28:05.516Z,15.08
2022-10-16T23:30:09.200Z,15.06
2022-10-16T23:32:13.182Z,15.05
2022-10-16T23:34:15.771Z,14.81
2022-10-16T23:36:22.006Z,14.83
2022-10-16T23:38:24.964Z,14.73
2022-10-16T23:40:27.607Z,14.69
2022-10-16T23:42:30.623Z,14.60
2022-10-16T23:44:34.294Z,14.56
2022-10-16T23:46:37.093Z,14.49
2022-10-16T23:48:41.349Z,14.54
2022-10-16T23:50:44.129Z,14.48
2022-10-16T23:52:46.765Z,14.50
2022-10-16T23:54:49.420Z,14.42
2022-10-16T23:56:52.024Z,14.39
2022-10-16T23:58:54.665Z,14.40
